sensor_id;sensor_type;location;lat;lon;timestamp;temperature;humidity
12329;DHT22;6230;52.390;10.256;2023-10-19T00:00:54;11.60;63.60
12329;DHT22;6230;52.390;10.256;2023-10-19T00:03:21;11.60;63.80
12329;DHT22;6230;52.390;10.256;2023-10-19T00:05:49;11.60;63.90
12329;DHT22;6230;52.390;10.256;2023-10-19T00:08:15;11.60;64.10
12329;DHT22;6230;52.390;10.256;2023-10-19T00:10:44;11.60;64.00
12329;DHT22;6230;52.390;10.256;2023-10-19T00:13:14;11.60;63.80
12329;DHT22;6230;52.390;10.256;2023-10-19T00:15:41;11.70;63.80
12329;DHT22;6230;52.390;10.256;2023-10-19T00:18:12;11.70;63.70
12329;DHT22;6230;52.390;10.256;2023-10-19T00:20:42;11.70;63.80
12329;DHT22;6230;52.390;10.256;2023-10-19T00:23:11;11.70;63.90
12329;DHT22;6230;52.390;10.256;2023-10-19T00:25:41;11.70;63.90
12329;DHT22;6230;52.390;10.256;2023-10-19T00:28:10;11.70;63.80
12329;DHT22;6230;52.390;10.256;2023-10-19T00:30:40;11.60;63.90
12329;DHT22;6230;52.390;10.256;2023-10-19T00:33:08;11.60;64.10
12329;DHT22;6230;52.390;10.256;2023-10-19T00:35:42;11.60;64.20
12329;DHT22;6230;52.390;10.256;2023-10-19T00:38:23;11.60;64.30
12329;DHT22;6230;52.390;10.256;2023-10-19T00:40:53;11.60;64.60
12329;DHT22;6230;52.390;10.256;2023-10-19T00:43:32;11.60;64.40
12329;DHT22;6230;52.390;10.256;2023-10-19T00:46:00;11.60;64.40
12329;DHT22;6230;52.390;10.256;2023-10-19T00:48:32;11.60;64.30
12329;DHT22;6230;52.390;10.256;2023-10-19T00:51:00;11.60;64.50
12329;DHT22;6230;52.390;10.256;2023-10-19T00:53:35;11.60;64.70
12329;DHT22;6230;52.390;10.256;2023-10-19T00:56:03;11.60;64.60
12329;DHT22;6230;52.390;10.256;2023-10-19T00:58:32;11.60;64.50
12329;DHT22;6230;52.390;10.256;2023-10-19T01:01:04;11.70;64.50
12329;DHT22;6230;52.390;10.256;2023-10-19T01:03:33;11.70;64.50
12329;DHT22;6230;52.390;10.256;2023-10-19T01:06:05;11.70;64.50
12329;DHT22;6230;52.390;10.256;2023-10-19T01:08:38;11.70;64.60
12329;DHT22;6230;52.390;10.256;2023-10-19T01:11:08;11.70;64.60
12329;DHT22;6230;52.390;10.256;2023-10-19T01:13:37;11.60;64.70
12329;DHT22;6230;52.390;10.256;2023-10-19T01:16:03;11.60;64.80
12329;DHT22;6230;52.390;10.256;2023-10-19T01:18:30;11.60;64.70
12329;DHT22;6230;52.390;10.256;2023-10-19T01:20:58;11.60;64.70
12329;DHT22;6230;52.390;10.256;2023-10-19T01:23:30;11.60;64.60
12329;DHT22;6230;52.390;10.256;2023-10-19T01:25:59;11.60;64.50
12329;DHT22;6230;52.390;10.256;2023-10-19T01:28:26;11.60;64.80
12329;DHT22;6230;52.390;10.256;2023-10-19T01:31:12;11.60;64.70
12329;DHT22;6230;52.390;10.256;2023-10-19T01:33:54;11.60;64.60
12329;DHT22;6230;52.390;10.256;2023-10-19T01:36:21;11.60;64.50
12329;DHT22;6230;52.390;10.256;2023-10-19T01:38:47;11.60;64.50
12329;DHT22;6230;52.390;10.256;2023-10-19T01:41:13;11.60;64.50
12329;DHT22;6230;52.390;10.256;2023-10-19T01:43:40;11.60;64.40
12329;DHT22;6230;52.390;10.256;2023-10-19T01:46:06;11.70;64.30
12329;DHT22;6230;52.390;10.256;2023-10-19T01:48:42;11.60;64.30
12329;DHT22;6230;52.390;10.256;2023-10-19T01:51:10;11.60;64.20
12329;DHT22;6230;52.390;10.256;2023-10-19T01:53:41;11.60;64.20
12329;DHT22;6230;52.390;10.256;2023-10-19T01:56:14;11.60;64.30
12329;DHT22;6230;52.390;10.256;2023-10-19T01:58:41;11.60;64.30
12329;DHT22;6230;52.390;10.256;2023-10-19T02:01:08;11.60;64.40
12329;DHT22;6230;52.390;10.256;2023-10-19T02:03:40;11.60;64.30
12329;DHT22;6230;52.390;10.256;2023-10-19T02:06:11;11.60;64.30
12329;DHT22;6230;52.390;10.256;2023-10-19T02:08:40;11.60;64.30
12329;DHT22;6230;52.390;10.256;2023-10-19T02:11:06;11.50;64.20
12329;DHT22;6230;52.390;10.256;2023-10-19T02:13:42;11.50;64.20
12329;DHT22;6230;52.390;10.256;2023-10-19T02:16:08;11.50;64.30
12329;DHT22;6230;52.390;10.256;2023-10-19T02:18:34;11.50;64.30
12329;DHT22;6230;52.390;10.256;2023-10-19T02:21:01;11.50;64.30
12329;DHT22;6230;52.390;10.256;2023-10-19T02:23:32;11.50;64.30
12329;DHT22;6230;52.390;10.256;2023-10-19T02:26:01;11.50;64.40
12329;DHT22;6230;52.390;10.256;2023-10-19T02:28:29;11.40;64.50
12329;DHT22;6230;52.390;10.256;2023-10-19T02:30:57;11.40;64.50
12329;DHT22;6230;52.390;10.256;2023-10-19T02:33:23;11.30;64.50
12329;DHT22;6230;52.390;10.256;2023-10-19T02:35:51;11.30;64.50
12329;DHT22;6230;52.390;10.256;2023-10-19T02:38:17;11.30;64.60
12329;DHT22;6230;52.390;10.256;2023-10-19T02:40:42;11.30;64.60
12329;DHT22;6230;52.390;10.256;2023-10-19T02:43:08;11.30;64.70
12329;DHT22;6230;52.390;10.256;2023-10-19T02:45:34;11.30;64.70
12329;DHT22;6230;52.390;10.256;2023-10-19T02:48:00;11.30;64.80
12329;DHT22;6230;52.390;10.256;2023-10-19T02:50:26;11.20;64.60
12329;DHT22;6230;52.390;10.256;2023-10-19T02:52:52;11.30;64.90
12329;DHT22;6230;52.390;10.256;2023-10-19T02:55:19;11.20;65.00
12329;DHT22;6230;52.390;10.256;2023-10-19T02:57:48;11.20;65.00
12329;DHT22;6230;52.390;10.256;2023-10-19T03:00:15;11.20;65.10
12329;DHT22;6230;52.390;10.256;2023-10-19T03:02:45;11.20;65.20
12329;DHT22;6230;52.390;10.256;2023-10-19T03:05:10;11.20;65.20
12329;DHT22;6230;52.390;10.256;2023-10-19T03:07:43;11.20;65.20
12329;DHT22;6230;52.390;10.256;2023-10-19T03:10:10;11.20;65.20
12329;DHT22;6230;52.390;10.256;2023-10-19T03:12:50;11.20;65.50
12329;DHT22;6230;52.390;10.256;2023-10-19T03:15:16;11.10;65.50
12329;DHT22;6230;52.390;10.256;2023-10-19T03:17:43;11.10;65.60
12329;DHT22;6230;52.390;10.256;2023-10-19T03:20:08;11.10;65.50
12329;DHT22;6230;52.390;10.256;2023-10-19T03:22:36;11.10;65.50
12329;DHT22;6230;52.390;10.256;2023-10-19T03:25:05;11.10;65.40
12329;DHT22;6230;52.390;10.256;2023-10-19T03:27:48;11.20;65.40
12329;DHT22;6230;52.390;10.256;2023-10-19T03:30:14;11.20;65.50
12329;DHT22;6230;52.390;10.256;2023-10-19T03:32:41;11.20;65.50
12329;DHT22;6230;52.390;10.256;2023-10-19T03:35:07;11.20;65.40
12329;DHT22;6230;52.390;10.256;2023-10-19T03:37:32;11.10;65.50
12329;DHT22;6230;52.390;10.256;2023-10-19T03:40:01;11.20;65.40
12329;DHT22;6230;52.390;10.256;2023-10-19T03:42:32;11.20;65.50
12329;DHT22;6230;52.390;10.256;2023-10-19T03:44:59;11.10;65.70
12329;DHT22;6230;52.390;10.256;2023-10-19T03:47:32;11.10;65.70
12329;DHT22;6230;52.390;10.256;2023-10-19T03:50:01;11.20;65.60
12329;DHT22;6230;52.390;10.256;2023-10-19T03:52:32;11.20;65.50
12329;DHT22;6230;52.390;10.256;2023-10-19T03:54:57;11.20;65.70
12329;DHT22;6230;52.390;10.256;2023-10-19T03:57:23;11.20;65.60
12329;DHT22;6230;52.390;10.256;2023-10-19T03:59:50;11.20;65.50
12329;DHT22;6230;52.390;10.256;2023-10-19T04:02:21;11.20;65.50
12329;DHT22;6230;52.390;10.256;2023-10-19T04:04:47;11.20;65.40
12329;DHT22;6230;52.390;10.256;2023-10-19T04:07:18;11.20;65.50
12329;DHT22;6230;52.390;10.256;2023-10-19T04:09:50;11.20;65.60
12329;DHT22;6230;52.390;10.256;2023-10-19T04:12:29;11.10;65.70
12329;DHT22;6230;52.390;10.256;2023-10-19T04:14:56;11.10;65.70
12329;DHT22;6230;52.390;10.256;2023-10-19T04:17:22;11.10;65.60
12329;DHT22;6230;52.390;10.256;2023-10-19T04:19:50;11.20;65.70
12329;DHT22;6230;52.390;10.256;2023-10-19T04:22:17;11.20;65.60
12329;DHT22;6230;52.390;10.256;2023-10-19T04:24:53;11.20;65.60
12329;DHT22;6230;52.390;10.256;2023-10-19T04:27:18;11.20;65.60
12329;DHT22;6230;52.390;10.256;2023-10-19T04:29:48;11.20;65.60
12329;DHT22;6230;52.390;10.256;2023-10-19T04:32:15;11.20;65.60
12329;DHT22;6230;52.390;10.256;2023-10-19T04:34:48;11.20;65.50
12329;DHT22;6230;52.390;10.256;2023-10-19T04:37:14;11.20;65.50
12329;DHT22;6230;52.390;10.256;2023-10-19T04:39:44;11.20;65.50
12329;DHT22;6230;52.390;10.256;2023-10-19T04:42:09;11.20;65.60
12329;DHT22;6230;52.390;10.256;2023-10-19T04:44:35;11.20;65.80
12329;DHT22;6230;52.390;10.256;2023-10-19T04:47:00;11.20;65.80
12329;DHT22;6230;52.390;10.256;2023-10-19T04:49:26;11.20;65.80
12329;DHT22;6230;52.390;10.256;2023-10-19T04:51:52;11.20;65.80
12329;DHT22;6230;52.390;10.256;2023-10-19T04:54:17;11.20;65.80
12329;DHT22;6230;52.390;10.256;2023-10-19T04:56:43;11.20;66.70
12329;DHT22;6230;52.390;10.256;2023-10-19T04:59:08;11.10;65.90
12329;DHT22;6230;52.390;10.256;2023-10-19T05:01:34;11.10;65.90
12329;DHT22;6230;52.390;10.256;2023-10-19T05:04:00;11.10;66.80
12329;DHT22;6230;52.390;10.256;2023-10-19T05:06:25;11.10;66.20
12329;DHT22;6230;52.390;10.256;2023-10-19T05:08:51;11.10;66.20
12329;DHT22;6230;52.390;10.256;2023-10-19T05:11:19;11.10;66.40
12329;DHT22;6230;52.390;10.256;2023-10-19T05:13:45;11.10;66.70
12329;DHT22;6230;52.390;10.256;2023-10-19T05:16:10;11.00;66.70
12329;DHT22;6230;52.390;10.256;2023-10-19T05:18:36;11.00;67.00
12329;DHT22;6230;52.390;10.256;2023-10-19T05:21:01;11.00;66.90
12329;DHT22;6230;52.390;10.256;2023-10-19T05:23:28;11.00;67.00
12329;DHT22;6230;52.390;10.256;2023-10-19T05:26:00;11.00;67.10
12329;DHT22;6230;52.390;10.256;2023-10-19T05:28:26;11.00;67.20
12329;DHT22;6230;52.390;10.256;2023-10-19T05:30:51;11.00;67.10
12329;DHT22;6230;52.390;10.256;2023-10-19T05:33:17;11.00;67.10
12329;DHT22;6230;52.390;10.256;2023-10-19T05:35:50;11.00;67.10
12329;DHT22;6230;52.390;10.256;2023-10-19T05:38:16;11.00;67.10
12329;DHT22;6230;52.390;10.256;2023-10-19T05:40:42;11.00;67.10
12329;DHT22;6230;52.390;10.256;2023-10-19T05:43:11;11.00;67.40
12329;DHT22;6230;52.390;10.256;2023-10-19T05:45:40;11.00;67.30
12329;DHT22;6230;52.390;10.256;2023-10-19T05:48:05;11.00;67.20
12329;DHT22;6230;52.390;10.256;2023-10-19T05:50:35;11.00;67.10
12329;DHT22;6230;52.390;10.256;2023-10-19T05:53:02;11.00;67.10
12329;DHT22;6230;52.390;10.256;2023-10-19T05:55:28;11.00;67.10
12329;DHT22;6230;52.390;10.256;2023-10-19T05:57:54;11.00;67.00
12329;DHT22;6230;52.390;10.256;2023-10-19T06:00:20;11.00;67.10
12329;DHT22;6230;52.390;10.256;2023-10-19T06:02:48;11.00;67.10
12329;DHT22;6230;52.390;10.256;2023-10-19T06:05:17;11.00;67.50
12329;DHT22;6230;52.390;10.256;2023-10-19T06:07:45;11.00;67.60
12329;DHT22;6230;52.390;10.256;2023-10-19T06:10:12;11.00;67.60
12329;DHT22;6230;52.390;10.256;2023-10-19T06:12:44;11.00;67.50
12329;DHT22;6230;52.390;10.256;2023-10-19T06:15:11;11.00;67.50
12329;DHT22;6230;52.390;10.256;2023-10-19T06:17:38;11.00;67.30
12329;DHT22;6230;52.390;10.256;2023-10-19T06:20:08;11.00;67.50
12329;DHT22;6230;52.390;10.256;2023-10-19T06:22:37;11.00;67.50
12329;DHT22;6230;52.390;10.256;2023-10-19T06:25:03;11.00;67.70
12329;DHT22;6230;52.390;10.256;2023-10-19T06:27:31;11.00;67.70
12329;DHT22;6230;52.390;10.256;2023-10-19T06:29:57;10.90;67.70
12329;DHT22;6230;52.390;10.256;2023-10-19T06:32:23;10.90;67.70
12329;DHT22;6230;52.390;10.256;2023-10-19T06:34:48;10.90;67.90
12329;DHT22;6230;52.390;10.256;2023-10-19T06:37:15;10.90;68.20
12329;DHT22;6230;52.390;10.256;2023-10-19T06:39:40;10.90;68.20
12329;DHT22;6230;52.390;10.256;2023-10-19T06:42:07;10.90;68.10
12329;DHT22;6230;52.390;10.256;2023-10-19T06:44:40;10.90;68.00
12329;DHT22;6230;52.390;10.256;2023-10-19T06:47:07;11.00;67.90
12329;DHT22;6230;52.390;10.256;2023-10-19T06:49:32;11.00;67.70
12329;DHT22;6230;52.390;10.256;2023-10-19T06:51:59;11.00;67.60
12329;DHT22;6230;52.390;10.256;2023-10-19T06:54:25;11.00;67.80
12329;DHT22;6230;52.390;10.256;2023-10-19T06:56:53;11.00;67.80
12329;DHT22;6230;52.390;10.256;2023-10-19T06:59:18;11.00;67.80
12329;DHT22;6230;52.390;10.256;2023-10-19T07:01:44;11.00;67.90
12329;DHT22;6230;52.390;10.256;2023-10-19T07:04:10;11.00;68.00
12329;DHT22;6230;52.390;10.256;2023-10-19T07:06:35;10.90;68.00
12329;DHT22;6230;52.390;10.256;2023-10-19T07:09:03;11.00;67.90
12329;DHT22;6230;52.390;10.256;2023-10-19T07:11:31;11.00;67.80
12329;DHT22;6230;52.390;10.256;2023-10-19T07:13:56;11.00;67.70
12329;DHT22;6230;52.390;10.256;2023-10-19T07:16:22;11.00;67.70
12329;DHT22;6230;52.390;10.256;2023-10-19T07:18:47;11.00;67.80
12329;DHT22;6230;52.390;10.256;2023-10-19T07:21:13;11.00;67.90
12329;DHT22;6230;52.390;10.256;2023-10-19T07:23:38;11.00;67.90
12329;DHT22;6230;52.390;10.256;2023-10-19T07:26:05;11.00;68.00
12329;DHT22;6230;52.390;10.256;2023-10-19T07:28:32;11.00;68.00
12329;DHT22;6230;52.390;10.256;2023-10-19T07:30:58;11.00;68.10
12329;DHT22;6230;52.390;10.256;2023-10-19T07:33:25;11.00;68.10
12329;DHT22;6230;52.390;10.256;2023-10-19T07:35:52;11.00;68.00
12329;DHT22;6230;52.390;10.256;2023-10-19T07:38:21;11.00;68.10
12329;DHT22;6230;52.390;10.256;2023-10-19T07:40:47;11.00;68.10
12329;DHT22;6230;52.390;10.256;2023-10-19T07:43:13;11.00;68.20
12329;DHT22;6230;52.390;10.256;2023-10-19T07:45:38;11.00;68.40
12329;DHT22;6230;52.390;10.256;2023-10-19T07:48:04;11.00;68.30
12329;DHT22;6230;52.390;10.256;2023-10-19T07:50:37;11.00;68.30
12329;DHT22;6230;52.390;10.256;2023-10-19T07:53:03;11.00;68.40
12329;DHT22;6230;52.390;10.256;2023-10-19T07:55:29;11.00;68.60
12329;DHT22;6230;52.390;10.256;2023-10-19T07:57:57;11.00;68.70
12329;DHT22;6230;52.390;10.256;2023-10-19T08:00:25;11.00;68.90
12329;DHT22;6230;52.390;10.256;2023-10-19T08:02:52;11.00;68.70
12329;DHT22;6230;52.390;10.256;2023-10-19T08:05:19;11.00;68.90
12329;DHT22;6230;52.390;10.256;2023-10-19T08:07:44;11.00;68.80
12329;DHT22;6230;52.390;10.256;2023-10-19T08:10:13;11.00;68.80
12329;DHT22;6230;52.390;10.256;2023-10-19T08:12:40;11.00;68.70
12329;DHT22;6230;52.390;10.256;2023-10-19T08:15:09;11.00;68.60
12329;DHT22;6230;52.390;10.256;2023-10-19T08:17:39;11.00;68.90
12329;DHT22;6230;52.390;10.256;2023-10-19T08:20:07;11.00;69.00
12329;DHT22;6230;52.390;10.256;2023-10-19T08:22:42;11.00;69.30
12329;DHT22;6230;52.390;10.256;2023-10-19T08:25:07;11.00;69.10
12329;DHT22;6230;52.390;10.256;2023-10-19T08:27:46;11.00;69.30
12329;DHT22;6230;52.390;10.256;2023-10-19T08:30:14;11.00;69.30
12329;DHT22;6230;52.390;10.256;2023-10-19T08:32:41;11.10;69.30
12329;DHT22;6230;52.390;10.256;2023-10-19T08:35:08;11.10;69.20
12329;DHT22;6230;52.390;10.256;2023-10-19T08:37:37;11.10;69.10
12329;DHT22;6230;52.390;10.256;2023-10-19T08:40:03;11.10;69.00
12329;DHT22;6230;52.390;10.256;2023-10-19T08:42:29;11.10;69.50
12329;DHT22;6230;52.390;10.256;2023-10-19T08:44:56;11.10;70.50
12329;DHT22;6230;52.390;10.256;2023-10-19T08:47:21;11.10;70.00
12329;DHT22;6230;52.390;10.256;2023-10-19T08:49:52;11.10;69.90
12329;DHT22;6230;52.390;10.256;2023-10-19T08:52:17;11.10;69.80
12329;DHT22;6230;52.390;10.256;2023-10-19T08:54:45;11.20;69.60
12329;DHT22;6230;52.390;10.256;2023-10-19T08:57:10;11.20;69.70
12329;DHT22;6230;52.390;10.256;2023-10-19T08:59:36;11.20;69.60
12329;DHT22;6230;52.390;10.256;2023-10-19T09:02:03;11.20;69.60
12329;DHT22;6230;52.390;10.256;2023-10-19T09:04:30;11.20;69.60
12329;DHT22;6230;52.390;10.256;2023-10-19T09:06:55;11.30;69.50
12329;DHT22;6230;52.390;10.256;2023-10-19T09:09:21;11.30;69.50
12329;DHT22;6230;52.390;10.256;2023-10-19T09:11:51;11.30;69.50
12329;DHT22;6230;52.390;10.256;2023-10-19T09:14:31;11.30;69.60
12329;DHT22;6230;52.390;10.256;2023-10-19T09:16:59;11.30;69.80
12329;DHT22;6230;52.390;10.256;2023-10-19T09:19:45;11.30;70.00
12329;DHT22;6230;52.390;10.256;2023-10-19T09:22:13;11.30;70.20
12329;DHT22;6230;52.390;10.256;2023-10-19T09:24:51;11.30;70.00
12329;DHT22;6230;52.390;10.256;2023-10-19T09:27:19;11.30;70.20
12329;DHT22;6230;52.390;10.256;2023-10-19T09:29:48;11.30;70.20
12329;DHT22;6230;52.390;10.256;2023-10-19T09:32:14;11.40;70.40
12329;DHT22;6230;52.390;10.256;2023-10-19T09:34:40;11.40;70.30
12329;DHT22;6230;52.390;10.256;2023-10-19T09:37:10;11.40;70.10
12329;DHT22;6230;52.390;10.256;2023-10-19T09:39:36;11.50;70.20
12329;DHT22;6230;52.390;10.256;2023-10-19T09:42:06;11.40;70.40
12329;DHT22;6230;52.390;10.256;2023-10-19T09:44:47;11.40;70.80
12329;DHT22;6230;52.390;10.256;2023-10-19T09:47:35;11.40;70.70
12329;DHT22;6230;52.390;10.256;2023-10-19T09:50:03;11.40;70.50
12329;DHT22;6230;52.390;10.256;2023-10-19T09:52:31;11.50;70.30
12329;DHT22;6230;52.390;10.256;2023-10-19T09:55:03;11.50;70.10
12329;DHT22;6230;52.390;10.256;2023-10-19T09:58:05;11.60;70.30
12329;DHT22;6230;52.390;10.256;2023-10-19T10:00:33;11.60;70.10
12329;DHT22;6230;52.390;10.256;2023-10-19T10:03:00;11.60;70.00
12329;DHT22;6230;52.390;10.256;2023-10-19T10:10:47;11.70;69.90
12329;DHT22;6230;52.390;10.256;2023-10-19T10:15:56;11.70;69.80
12329;DHT22;6230;52.390;10.256;2023-10-19T10:18:31;11.80;70.00
12329;DHT22;6230;52.390;10.256;2023-10-19T10:21:16;11.80;70.60
12329;DHT22;6230;52.390;10.256;2023-10-19T10:23:49;11.70;70.50
12329;DHT22;6230;52.390;10.256;2023-10-19T10:26:16;11.70;70.40
12329;DHT22;6230;52.390;10.256;2023-10-19T10:28:47;11.70;70.30
12329;DHT22;6230;52.390;10.256;2023-10-19T10:31:21;11.80;70.30
12329;DHT22;6230;52.390;10.256;2023-10-19T10:33:54;11.80;70.20
12329;DHT22;6230;52.390;10.256;2023-10-19T10:36:20;11.80;70.10
12329;DHT22;6230;52.390;10.256;2023-10-19T10:38:50;11.90;70.00
12329;DHT22;6230;52.390;10.256;2023-10-19T10:41:23;11.90;70.00
12329;DHT22;6230;52.390;10.256;2023-10-19T10:43:56;12.00;70.10
12329;DHT22;6230;52.390;10.256;2023-10-19T10:46:24;12.00;70.10
12329;DHT22;6230;52.390;10.256;2023-10-19T10:48:50;12.10;70.10
12329;DHT22;6230;52.390;10.256;2023-10-19T10:51:21;12.10;69.90
12329;DHT22;6230;52.390;10.256;2023-10-19T10:53:48;12.10;69.90
12329;DHT22;6230;52.390;10.256;2023-10-19T10:56:15;12.20;70.00
12329;DHT22;6230;52.390;10.256;2023-10-19T10:58:41;12.20;69.80
12329;DHT22;6230;52.390;10.256;2023-10-19T11:01:07;12.30;69.80
12329;DHT22;6230;52.390;10.256;2023-10-19T11:03:32;12.30;69.80
12329;DHT22;6230;52.390;10.256;2023-10-19T11:06:09;12.30;69.70
12329;DHT22;6230;52.390;10.256;2023-10-19T11:08:36;12.30;69.80
12329;DHT22;6230;52.390;10.256;2023-10-19T11:11:09;12.30;69.80
12329;DHT22;6230;52.390;10.256;2023-10-19T11:13:38;12.30;69.80
12329;DHT22;6230;52.390;10.256;2023-10-19T11:16:06;12.30;69.70
12329;DHT22;6230;52.390;10.256;2023-10-19T11:18:42;12.30;69.70
12329;DHT22;6230;52.390;10.256;2023-10-19T11:21:15;12.30;69.80
12329;DHT22;6230;52.390;10.256;2023-10-19T11:23:45;12.30;69.90
12329;DHT22;6230;52.390;10.256;2023-10-19T11:26:12;12.30;69.90
12329;DHT22;6230;52.390;10.256;2023-10-19T11:28:38;12.30;69.90
12329;DHT22;6230;52.390;10.256;2023-10-19T11:31:16;12.30;69.80
12329;DHT22;6230;52.390;10.256;2023-10-19T11:33:43;12.30;69.70
12329;DHT22;6230;52.390;10.256;2023-10-19T11:36:10;12.40;69.70
12329;DHT22;6230;52.390;10.256;2023-10-19T11:38:41;12.40;69.70
12329;DHT22;6230;52.390;10.256;2023-10-19T11:41:08;12.40;69.90
12329;DHT22;6230;52.390;10.256;2023-10-19T11:43:35;12.40;69.90
12329;DHT22;6230;52.390;10.256;2023-10-19T11:46:01;12.30;70.00
12329;DHT22;6230;52.390;10.256;2023-10-19T11:48:27;12.30;69.90
12329;DHT22;6230;52.390;10.256;2023-10-19T11:50:53;12.40;69.80
12329;DHT22;6230;52.390;10.256;2023-10-19T11:53:19;12.40;69.90
12329;DHT22;6230;52.390;10.256;2023-10-19T11:55:45;12.40;69.80
12329;DHT22;6230;52.390;10.256;2023-10-19T11:58:13;12.40;69.70
12329;DHT22;6230;52.390;10.256;2023-10-19T12:00:40;12.40;69.60
12329;DHT22;6230;52.390;10.256;2023-10-19T12:03:12;12.40;69.60
12329;DHT22;6230;52.390;10.256;2023-10-19T12:05:37;12.40;69.70
12329;DHT22;6230;52.390;10.256;2023-10-19T12:08:03;12.40;69.60
12329;DHT22;6230;52.390;10.256;2023-10-19T12:10:29;12.40;69.60
12329;DHT22;6230;52.390;10.256;2023-10-19T12:13:02;12.40;69.60
12329;DHT22;6230;52.390;10.256;2023-10-19T12:15:27;12.40;69.50
12329;DHT22;6230;52.390;10.256;2023-10-19T12:17:54;12.40;69.60
12329;DHT22;6230;52.390;10.256;2023-10-19T12:20:20;12.30;69.50
12329;DHT22;6230;52.390;10.256;2023-10-19T12:22:47;12.30;69.60
12329;DHT22;6230;52.390;10.256;2023-10-19T12:25:13;12.30;69.50
12329;DHT22;6230;52.390;10.256;2023-10-19T12:27:40;12.30;69.50
12329;DHT22;6230;52.390;10.256;2023-10-19T12:30:06;12.30;69.40
12329;DHT22;6230;52.390;10.256;2023-10-19T12:32:42;12.30;69.40
12329;DHT22;6230;52.390;10.256;2023-10-19T12:35:08;12.40;69.50
12329;DHT22;6230;52.390;10.256;2023-10-19T12:37:37;12.40;69.30
12329;DHT22;6230;52.390;10.256;2023-10-19T12:40:12;12.40;69.30
12329;DHT22;6230;52.390;10.256;2023-10-19T12:42:55;12.30;69.30
12329;DHT22;6230;52.390;10.256;2023-10-19T12:45:25;12.30;69.40
12329;DHT22;6230;52.390;10.256;2023-10-19T12:47:51;12.30;69.20
12329;DHT22;6230;52.390;10.256;2023-10-19T12:50:21;12.30;69.30
12329;DHT22;6230;52.390;10.256;2023-10-19T12:52:51;12.30;69.30
12329;DHT22;6230;52.390;10.256;2023-10-19T12:55:19;12.30;69.30
12329;DHT22;6230;52.390;10.256;2023-10-19T12:57:44;12.30;69.20
12329;DHT22;6230;52.390;10.256;2023-10-19T13:00:10;12.40;69.20
12329;DHT22;6230;52.390;10.256;2023-10-19T13:02:57;12.40;69.10
12329;DHT22;6230;52.390;10.256;2023-10-19T13:05:27;12.40;69.10
12329;DHT22;6230;52.390;10.256;2023-10-19T13:07:53;12.30;69.10
12329;DHT22;6230;52.390;10.256;2023-10-19T13:10:19;12.30;69.10
12329;DHT22;6230;52.390;10.256;2023-10-19T13:12:44;12.30;69.20
12329;DHT22;6230;52.390;10.256;2023-10-19T13:15:10;12.30;69.20
12329;DHT22;6230;52.390;10.256;2023-10-19T13:17:41;12.30;69.20
12329;DHT22;6230;52.390;10.256;2023-10-19T13:20:08;12.30;69.30
12329;DHT22;6230;52.390;10.256;2023-10-19T13:22:44;12.30;69.20
12329;DHT22;6230;52.390;10.256;2023-10-19T13:25:11;12.30;69.20
12329;DHT22;6230;52.390;10.256;2023-10-19T13:27:39;12.30;69.20
12329;DHT22;6230;52.390;10.256;2023-10-19T13:30:07;12.30;69.10
12329;DHT22;6230;52.390;10.256;2023-10-19T13:32:36;12.30;69.10
12329;DHT22;6230;52.390;10.256;2023-10-19T13:35:02;12.30;69.10
12329;DHT22;6230;52.390;10.256;2023-10-19T13:37:28;12.30;69.20
12329;DHT22;6230;52.390;10.256;2023-10-19T13:39:54;12.30;69.10
12329;DHT22;6230;52.390;10.256;2023-10-19T13:42:20;12.30;69.20
12329;DHT22;6230;52.390;10.256;2023-10-19T13:44:47;12.30;69.20
12329;DHT22;6230;52.390;10.256;2023-10-19T13:47:13;12.20;69.20
12329;DHT22;6230;52.390;10.256;2023-10-19T13:49:38;12.20;69.20
12329;DHT22;6230;52.390;10.256;2023-10-19T13:52:04;12.20;69.20
12329;DHT22;6230;52.390;10.256;2023-10-19T13:54:30;12.20;69.20
12329;DHT22;6230;52.390;10.256;2023-10-19T13:56:56;12.30;69.20
12329;DHT22;6230;52.390;10.256;2023-10-19T13:59:21;12.20;69.00
12329;DHT22;6230;52.390;10.256;2023-10-19T14:01:49;12.20;69.10
12329;DHT22;6230;52.390;10.256;2023-10-19T14:04:15;12.20;69.10
12329;DHT22;6230;52.390;10.256;2023-10-19T14:06:41;12.20;69.20
12329;DHT22;6230;52.390;10.256;2023-10-19T14:09:08;12.20;69.20
12329;DHT22;6230;52.390;10.256;2023-10-19T14:11:38;12.20;69.30
12329;DHT22;6230;52.390;10.256;2023-10-19T14:14:03;12.10;69.10
12329;DHT22;6230;52.390;10.256;2023-10-19T14:16:30;12.20;69.20
12329;DHT22;6230;52.390;10.256;2023-10-19T14:18:56;12.20;69.20
12329;DHT22;6230;52.390;10.256;2023-10-19T14:21:22;12.10;69.10
12329;DHT22;6230;52.390;10.256;2023-10-19T14:23:52;12.10;69.10
12329;DHT22;6230;52.390;10.256;2023-10-19T14:26:19;12.10;69.20
12329;DHT22;6230;52.390;10.256;2023-10-19T14:28:45;12.10;69.20
12329;DHT22;6230;52.390;10.256;2023-10-19T14:31:10;12.10;69.10
12329;DHT22;6230;52.390;10.256;2023-10-19T14:33:37;12.10;69.00
12329;DHT22;6230;52.390;10.256;2023-10-19T14:36:06;12.10;69.00
12329;DHT22;6230;52.390;10.256;2023-10-19T14:38:33;12.10;69.10
12329;DHT22;6230;52.390;10.256;2023-10-19T14:40:59;12.10;69.20
12329;DHT22;6230;52.390;10.256;2023-10-19T14:43:24;12.00;69.10
12329;DHT22;6230;52.390;10.256;2023-10-19T14:45:55;12.00;69.10
12329;DHT22;6230;52.390;10.256;2023-10-19T14:48:22;12.00;69.10
12329;DHT22;6230;52.390;10.256;2023-10-19T14:50:49;12.00;69.20
12329;DHT22;6230;52.390;10.256;2023-10-19T14:53:17;12.00;69.10
12329;DHT22;6230;52.390;10.256;2023-10-19T14:55:44;11.90;69.10
12329;DHT22;6230;52.390;10.256;2023-10-19T14:58:12;11.90;69.20
12329;DHT22;6230;52.390;10.256;2023-10-19T15:00:38;11.90;69.20
12329;DHT22;6230;52.390;10.256;2023-10-19T15:03:08;11.90;69.20
12329;DHT22;6230;52.390;10.256;2023-10-19T15:05:34;11.80;69.20
12329;DHT22;6230;52.390;10.256;2023-10-19T15:08:04;11.80;69.30
12329;DHT22;6230;52.390;10.256;2023-10-19T15:10:33;11.80;69.30
12329;DHT22;6230;52.390;10.256;2023-10-19T15:12:59;11.80;69.40
12329;DHT22;6230;52.390;10.256;2023-10-19T15:15:26;11.80;69.50
12329;DHT22;6230;52.390;10.256;2023-10-19T15:17:52;11.80;69.40
12329;DHT22;6230;52.390;10.256;2023-10-19T15:20:23;11.70;69.30
12329;DHT22;6230;52.390;10.256;2023-10-19T15:22:52;11.70;69.40
12329;DHT22;6230;52.390;10.256;2023-10-19T15:25:22;11.70;69.40
12329;DHT22;6230;52.390;10.256;2023-10-19T15:27:50;11.70;69.30
12329;DHT22;6230;52.390;10.256;2023-10-19T15:30:15;11.70;69.30
12329;DHT22;6230;52.390;10.256;2023-10-19T15:32:43;11.70;69.40
12329;DHT22;6230;52.390;10.256;2023-10-19T15:35:14;11.70;69.30
12329;DHT22;6230;52.390;10.256;2023-10-19T15:37:42;11.70;69.30
12329;DHT22;6230;52.390;10.256;2023-10-19T15:40:09;11.70;69.30
12329;DHT22;6230;52.390;10.256;2023-10-19T15:42:40;11.70;69.20
12329;DHT22;6230;52.390;10.256;2023-10-19T15:45:10;11.70;69.30